Time;durP1;ratioP1;P1;durP2;ratioP2;P2;SDS_P1;SDS_P2;PMS_P1;PMS_P2;Temp;Humidity;BMP_temperature;BMP_pressure;BME280_temperature;BME280_humidity;BME280_pressure;Samples;Min_cycle;Max_cycle;Signal;HPM_P1;HPM_P2
2024/02/20 00:00:37;;;;;;;28.35;5.10;;;7.80;99.90;;;;;;5072897;28;20432;-69
2024/02/20 00:03:03;;;;;;;29.40;5.13;;;7.80;99.90;;;;;;5072840;28;20024;-69
2024/02/20 00:05:29;;;;;;;33.75;6.57;;;7.80;99.90;;;;;;5072496;28;20086;-69
2024/02/20 00:07:56;;;;;;;24.38;5.00;;;7.80;99.90;;;;;;5072329;28;20032;-69
2024/02/20 00:10:21;;;;;;;28.48;5.65;;;7.80;99.90;;;;;;5072558;28;20020;-69
2024/02/20 00:12:47;;;;;;;28.75;5.43;;;7.80;99.90;;;;;;5073276;28;20035;-69
2024/02/20 00:15:13;;;;;;;29.83;5.32;;;7.70;99.90;;;;;;5076408;28;20029;-69
2024/02/20 00:17:39;;;;;;;20.15;5.50;;;7.70;99.90;;;;;;5076277;28;20031;-69
2024/02/20 00:20:05;;;;;;;33.80;5.25;;;7.70;99.90;;;;;;5075830;28;20033;-69
2024/02/20 00:22:32;;;;;;;24.60;4.78;;;7.60;99.90;;;;;;5076281;28;20060;-69
2024/02/20 00:24:58;;;;;;;22.77;4.63;;;7.50;99.90;;;;;;5075735;28;20027;-69
2024/02/20 00:27:23;;;;;;;39.10;5.10;;;7.40;99.90;;;;;;5076018;28;20029;-69
2024/02/20 00:29:49;;;;;;;27.05;5.07;;;7.30;99.90;;;;;;5076070;28;20066;-69
2024/02/20 00:32:17;;;;;;;36.22;5.25;;;7.20;99.90;;;;;;5075641;28;20136;-69
2024/02/20 00:34:42;;;;;;;23.83;5.22;;;7.20;99.90;;;;;;5075505;28;20039;-69
2024/02/20 00:37:08;;;;;;;31.15;5.65;;;7.10;99.90;;;;;;5075917;28;20107;-69
2024/02/20 00:39:34;;;;;;;30.90;4.88;;;7.10;99.90;;;;;;5075841;28;20036;-69
2024/02/20 00:42:01;;;;;;;29.00;5.63;;;7.10;99.90;;;;;;5075964;28;20398;-70
2024/02/20 00:44:27;;;;;;;28.50;5.22;;;7.00;99.90;;;;;;5075775;28;20111;-69
2024/02/20 00:46:53;;;;;;;23.67;5.43;;;7.10;99.90;;;;;;5075461;28;20299;-69
2024/02/20 00:49:19;;;;;;;25.92;4.97;;;7.00;99.90;;;;;;5075663;28;20032;-69
2024/02/20 00:51:44;;;;;;;32.42;5.32;;;7.10;99.90;;;;;;5075664;28;20036;-69
2024/02/20 00:54:10;;;;;;;36.85;5.43;;;7.00;99.90;;;;;;5075561;28;20537;-69
2024/02/20 00:56:36;;;;;;;31.88;5.55;;;7.00;99.90;;;;;;5075602;28;20119;-69
2024/02/20 00:59:03;;;;;;;30.15;4.93;;;6.90;99.90;;;;;;5075631;28;20063;-69
2024/02/20 01:01:29;;;;;;;38.15;6.03;;;7.00;99.90;;;;;;5075147;28;20025;-69
2024/02/20 01:03:55;;;;;;;34.90;5.45;;;7.00;99.90;;;;;;5074972;28;20025;-69
2024/02/20 01:06:20;;;;;;;36.03;6.85;;;7.00;99.90;;;;;;5074971;28;20505;-69
2024/02/20 01:08:46;;;;;;;30.45;5.53;;;7.00;99.90;;;;;;5075059;28;20021;-69
2024/02/20 01:11:12;;;;;;;32.17;5.80;;;7.10;99.90;;;;;;5075298;28;20035;-69
2024/02/20 01:13:38;;;;;;;32.20;5.80;;;7.10;99.90;;;;;;5075148;28;20104;-69
2024/02/20 01:16:04;;;;;;;28.40;5.93;;;7.20;99.90;;;;;;5075322;28;20514;-69
2024/02/20 01:18:30;;;;;;;25.98;5.20;;;7.10;99.90;;;;;;5075248;28;20028;-69
2024/02/20 01:20:55;;;;;;;32.00;5.63;;;7.10;99.90;;;;;;5074641;28;20032;-69
2024/02/20 01:23:21;;;;;;;27.98;5.35;;;7.10;99.90;;;;;;5075081;28;20064;-70
2024/02/20 01:25:47;;;;;;;25.85;6.18;;;7.20;99.90;;;;;;5074919;28;20029;-69
2024/02/20 01:28:12;;;;;;;35.85;6.22;;;7.10;99.90;;;;;;5074933;28;20029;-69
2024/02/20 01:30:38;;;;;;;39.22;5.60;;;7.00;99.90;;;;;;5074804;28;20032;-69
2024/02/20 01:33:04;;;;;;;42.03;6.82;;;7.10;99.90;;;;;;5074891;28;20028;-69
2024/02/20 01:35:30;;;;;;;44.35;5.90;;;7.10;99.90;;;;;;5074837;28;20059;-69
2024/02/20 01:37:57;;;;;;;48.42;7.55;;;7.10;99.90;;;;;;5074714;28;20033;-69
2024/02/20 01:40:23;;;;;;;38.63;5.97;;;7.10;99.90;;;;;;5074662;28;20028;-69
2024/02/20 01:43:08;;;;;;;35.08;5.05;;;7.10;99.90;;;;;;5074184;28;20059;-69
2024/02/20 01:45:35;;;;;;;42.53;6.05;;;7.10;99.90;;;;;;5074152;28;20033;-69
2024/02/20 01:48:03;;;;;;;38.15;7.10;;;7.10;99.90;;;;;;5074605;28;20032;-69
2024/02/20 01:50:34;;;;;;;41.17;7.22;;;7.00;99.90;;;;;;5074572;28;20474;-69
2024/02/20 01:53:02;;;;;;;33.80;6.30;;;6.90;99.90;;;;;;5074577;28;20036;-69
2024/02/20 01:55:28;;;;;;;48.53;6.97;;;6.90;99.90;;;;;;5073972;28;20048;-69
2024/02/20 01:57:54;;;;;;;44.20;6.63;;;6.80;99.90;;;;;;5073971;28;20025;-69
2024/02/20 02:00:20;;;;;;;38.38;6.60;;;6.70;99.90;;;;;;5074192;28;20039;-69
2024/02/20 02:02:45;;;;;;;47.33;6.80;;;6.60;99.90;;;;;;5074193;28;20060;-69
2024/02/20 02:05:12;;;;;;;45.17;7.78;;;6.60;99.90;;;;;;5073892;28;20049;-69
2024/02/20 02:07:38;;;;;;;40.35;6.85;;;6.50;99.90;;;;;;5074072;28;20066;-69
2024/02/20 02:10:04;;;;;;;34.25;5.05;;;6.50;99.90;;;;;;5074287;28;20470;-69
2024/02/20 02:12:30;;;;;;;45.42;7.00;;;6.50;99.90;;;;;;5073780;28;20021;-69
2024/02/20 02:14:55;;;;;;;52.95;7.38;;;6.50;99.90;;;;;;5073532;28;20364;-69
2024/02/20 02:17:21;;;;;;;39.80;5.93;;;6.50;99.90;;;;;;5074009;28;20074;-69
2024/02/20 02:19:47;;;;;;;47.45;7.13;;;6.60;99.90;;;;;;5073536;28;20021;-69
2024/02/20 02:22:12;;;;;;;49.78;7.45;;;6.50;99.90;;;;;;5073926;28;20054;-69
2024/02/20 02:24:38;;;;;;;40.63;7.47;;;6.50;99.90;;;;;;5073462;28;20028;-69
2024/02/20 02:27:04;;;;;;;36.67;6.05;;;6.40;99.90;;;;;;5073574;28;20143;-69
2024/02/20 02:29:31;;;;;;;47.53;7.30;;;6.40;99.90;;;;;;5073733;28;20023;-68
2024/02/20 02:31:57;;;;;;;41.13;6.32;;;6.30;99.90;;;;;;5073197;28;20025;-69
2024/02/20 02:34:24;;;;;;;42.58;6.32;;;6.20;99.90;;;;;;5073222;28;20074;-69
2024/02/20 02:36:50;;;;;;;44.72;5.82;;;6.20;99.90;;;;;;5073311;28;20027;-69
2024/02/20 02:39:17;;;;;;;37.95;5.50;;;6.10;99.90;;;;;;5073713;28;20025;-69
2024/02/20 02:41:43;;;;;;;47.63;7.03;;;6.00;99.90;;;;;;5073589;28;20028;-69
2024/02/20 02:44:09;;;;;;;41.90;6.72;;;6.00;99.90;;;;;;5073479;28;20033;-69
2024/02/20 02:46:34;;;;;;;52.38;7.28;;;5.90;99.90;;;;;;5073373;28;20036;-69
2024/02/20 02:49:00;;;;;;;47.28;8.05;;;5.90;99.90;;;;;;5073368;28;20025;-69
2024/02/20 02:51:25;;;;;;;50.38;7.20;;;5.90;99.90;;;;;;5073436;28;20028;-69
2024/02/20 02:53:51;;;;;;;38.65;6.25;;;5.90;99.90;;;;;;5073503;28;20035;-69
2024/02/20 02:56:17;;;;;;;50.22;6.88;;;5.90;99.90;;;;;;5073447;28;20027;-69
2024/02/20 02:58:43;;;;;;;40.90;7.35;;;5.90;99.90;;;;;;5073261;28;20028;-69
2024/02/20 03:01:09;;;;;;;41.13;5.93;;;5.90;99.90;;;;;;5073452;28;20131;-69
2024/02/20 03:03:35;;;;;;;48.58;7.50;;;5.90;99.90;;;;;;5073397;28;20039;-69
2024/02/20 03:06:08;;;;;;;47.38;6.30;;;5.90;99.90;;;;;;5073145;28;20141;-69
2024/02/20 03:08:36;;;;;;;59.40;7.30;;;5.90;99.90;;;;;;5073393;28;20056;-69
2024/02/20 03:11:02;;;;;;;45.08;6.93;;;5.80;99.90;;;;;;5073374;28;20388;-69
2024/02/20 03:13:28;;;;;;;46.83;8.57;;;5.90;99.90;;;;;;5073288;28;20021;-69
2024/02/20 03:15:53;;;;;;;42.13;7.45;;;5.80;99.90;;;;;;5073101;28;20033;-69
2024/02/20 03:18:19;;;;;;;49.00;8.30;;;5.80;99.90;;;;;;5073232;28;20059;-69
2024/02/20 03:20:45;;;;;;;64.05;8.25;;;5.80;99.90;;;;;;5073060;28;20032;-69
2024/02/20 03:23:10;;;;;;;48.25;8.07;;;5.70;99.90;;;;;;5073147;28;20043;-70
2024/02/20 03:25:36;;;;;;;55.15;7.65;;;5.70;99.90;;;;;;5073163;28;20033;-68
2024/02/20 03:28:01;;;;;;;62.50;8.55;;;5.70;99.90;;;;;;5073131;28;20036;-69
2024/02/20 03:30:28;;;;;;;52.15;7.97;;;5.70;99.90;;;;;;5073130;28;20033;-69
2024/02/20 03:32:54;;;;;;;50.83;7.40;;;5.70;99.90;;;;;;5073031;28;20381;-69
2024/02/20 03:35:21;;;;;;;45.40;8.48;;;5.70;99.90;;;;;;5073026;28;20025;-69
2024/02/20 03:37:48;;;;;;;50.08;8.40;;;5.70;99.90;;;;;;5073065;28;20020;-69
2024/02/20 03:40:15;;;;;;;53.92;7.88;;;5.70;99.90;;;;;;5072989;28;20162;-69
2024/02/20 03:42:40;;;;;;;60.20;8.68;;;5.80;99.90;;;;;;5073099;28;20414;-69
2024/02/20 03:45:06;;;;;;;61.35;8.85;;;5.80;99.90;;;;;;5073074;28;20035;-69
2024/02/20 03:47:32;;;;;;;70.32;8.77;;;5.80;99.90;;;;;;5073240;28;20021;-69
2024/02/20 03:49:58;;;;;;;59.85;8.15;;;5.80;99.90;;;;;;5076350;28;20017;-69
2024/02/20 03:52:24;;;;;;;65.05;8.60;;;5.90;99.90;;;;;;5076737;28;20470;-69
2024/02/20 03:54:49;;;;;;;63.17;9.30;;;6.00;99.90;;;;;;5076696;28;20032;-69
2024/02/20 03:57:16;;;;;;;50.67;8.05;;;6.00;99.90;;;;;;5076652;28;20131;-69
2024/02/20 03:59:42;;;;;;;46.72;8.05;;;6.00;99.90;;;;;;5076253;28;20033;-69
2024/02/20 04:02:08;;;;;;;55.40;8.40;;;6.00;99.90;;;;;;5076585;28;20040;-69
2024/02/20 04:04:34;;;;;;;44.45;8.18;;;6.00;99.90;;;;;;5076440;28;20029;-69
2024/02/20 04:07:00;;;;;;;73.82;10.55;;;6.00;99.90;;;;;;5076108;28;20024;-70
2024/02/20 04:09:26;;;;;;;53.28;8.00;;;6.10;99.90;;;;;;5076494;28;20123;-69
2024/02/20 04:11:52;;;;;;;66.30;9.20;;;6.10;99.90;;;;;;5076215;28;20535;-69
2024/02/20 04:14:17;;;;;;;66.30;10.23;;;6.20;99.90;;;;;;5076357;28;20086;-69
2024/02/20 04:16:43;;;;;;;45.30;8.77;;;6.20;99.90;;;;;;5076328;28;20025;-69
2024/02/20 04:19:08;;;;;;;57.05;9.25;;;6.30;99.90;;;;;;5075958;28;20482;-69
2024/02/20 04:21:34;;;;;;;65.60;10.15;;;6.30;99.90;;;;;;5075684;28;20032;-69
2024/02/20 04:24:00;;;;;;;60.83;10.73;;;6.30;99.90;;;;;;5075962;28;20032;-69
2024/02/20 04:26:25;;;;;;;56.42;10.15;;;6.40;99.90;;;;;;5075812;28;20141;-69
2024/02/20 04:28:51;;;;;;;60.25;11.55;;;6.40;99.90;;;;;;5076025;28;20234;-69
2024/02/20 04:31:16;;;;;;;67.15;10.68;;;6.50;99.90;;;;;;5075990;28;20534;-69
2024/02/20 04:33:42;;;;;;;63.53;11.55;;;6.50;99.90;;;;;;5075739;28;20368;-69
2024/02/20 04:36:09;;;;;;;63.13;11.63;;;6.50;99.90;;;;;;5075957;28;20383;-69
2024/02/20 04:38:35;;;;;;;51.58;11.10;;;6.50;99.90;;;;;;5076063;28;20025;-69
2024/02/20 04:41:01;;;;;;;64.03;11.85;;;6.50;99.90;;;;;;5075856;28;20037;-69
2024/02/20 04:43:26;;;;;;;55.97;11.30;;;6.60;99.90;;;;;;5075789;28;20032;-70
2024/02/20 04:45:52;;;;;;;51.88;10.55;;;6.60;99.90;;;;;;5075622;28;20024;-70
2024/02/20 04:48:17;;;;;;;64.68;10.85;;;6.60;99.90;;;;;;5075509;28;20021;-69
2024/02/20 04:50:43;;;;;;;57.90;11.52;;;6.60;99.90;;;;;;5075766;28;20449;-69
2024/02/20 04:53:09;;;;;;;57.60;11.65;;;6.60;99.90;;;;;;5075271;28;20548;-70
2024/02/20 04:55:36;;;;;;;70.90;13.63;;;6.50;99.90;;;;;;5075669;28;20496;-70
2024/02/20 04:58:02;;;;;;;54.55;12.05;;;6.50;99.90;;;;;;5075678;28;20020;-70
2024/02/20 05:00:28;;;;;;;45.60;11.80;;;6.50;99.90;;;;;;5074848;28;20025;-70
2024/02/20 05:02:55;;;;;;;54.22;10.60;;;6.40;99.90;;;;;;5075009;28;20036;-70
2024/02/20 05:05:20;;;;;;;60.78;11.57;;;6.40;99.90;;;;;;5075216;28;20502;-70
2024/02/20 05:07:46;;;;;;;46.13;10.77;;;6.40;99.90;;;;;;5075386;28;20028;-69
2024/02/20 05:10:12;;;;;;;50.85;11.48;;;6.40;99.90;;;;;;5075336;28;20039;-70
2024/02/20 05:12:42;;;;;;;50.35;10.75;;;6.30;99.90;;;;;;5074948;28;20035;-70
2024/02/20 05:15:08;;;;;;;57.65;11.75;;;6.30;99.90;;;;;;5075005;28;20028;-69
2024/02/20 05:17:33;;;;;;;62.40;10.85;;;6.20;99.90;;;;;;5075318;28;20032;-70
2024/02/20 05:19:59;;;;;;;56.35;13.15;;;6.20;99.90;;;;;;5075112;28;20363;-70
2024/02/20 05:22:27;;;;;;;66.70;11.50;;;6.10;99.90;;;;;;5075031;28;20028;-69
2024/02/20 05:24:53;;;;;;;58.92;11.98;;;6.10;99.90;;;;;;5075035;28;20020;-70
2024/02/20 05:27:19;;;;;;;57.28;11.13;;;6.10;99.90;;;;;;5074694;28;20033;-70
2024/02/20 05:29:45;;;;;;;56.85;11.52;;;6.10;99.90;;;;;;5075041;28;20062;-69
2024/02/20 05:32:11;;;;;;;62.35;11.35;;;6.10;99.90;;;;;;5075029;28;20378;-70
2024/02/20 05:34:36;;;;;;;46.63;11.13;;;6.10;99.90;;;;;;5074927;28;20029;-70
2024/02/20 05:37:02;;;;;;;63.47;11.85;;;6.10;99.90;;;;;;5074617;28;20064;-70
2024/02/20 05:39:28;;;;;;;57.35;11.90;;;6.20;99.90;;;;;;5074685;28;20033;-70
2024/02/20 05:41:55;;;;;;;52.08;12.43;;;6.20;99.90;;;;;;5074740;28;20037;-69
2024/02/20 05:44:20;;;;;;;74.25;15.60;;;6.20;99.90;;;;;;5074610;28;20555;-69
2024/02/20 05:46:46;;;;;;;63.63;16.13;;;6.20;99.90;;;;;;5074386;28;20032;-69
2024/02/20 05:49:12;;;;;;;67.50;14.90;;;6.20;99.90;;;;;;5074371;28;20027;-69
2024/02/20 05:51:37;;;;;;;54.83;15.95;;;6.20;99.90;;;;;;5074416;28;20395;-69
2024/02/20 05:54:03;;;;;;;69.88;17.35;;;6.20;99.90;;;;;;5074530;28;20545;-69
2024/02/20 05:56:31;;;;;;;80.82;19.85;;;6.20;99.90;;;;;;5074306;28;20028;-69
2024/02/20 05:58:57;;;;;;;67.03;18.98;;;6.10;99.90;;;;;;5074294;28;20029;-69
2024/02/20 06:01:23;;;;;;;87.32;19.42;;;6.20;99.90;;;;;;5074271;28;20036;-69
2024/02/20 06:03:49;;;;;;;74.63;19.27;;;6.20;99.90;;;;;;5074228;28;20035;-70
2024/02/20 06:06:14;;;;;;;84.25;21.63;;;6.20;99.90;;;;;;5073546;28;20072;-69
2024/02/20 06:08:42;;;;;;;73.43;19.45;;;6.20;99.90;;;;;;5074139;28;20025;-69
2024/02/20 06:11:17;;;;;;;82.85;21.30;;;6.20;99.90;;;;;;5073439;28;20043;-69
2024/02/20 06:13:44;;;;;;;74.90;20.15;;;6.20;99.90;;;;;;5074146;28;20090;-69
2024/02/20 06:16:10;;;;;;;82.43;20.55;;;6.20;99.90;;;;;;5074078;28;20046;-69
2024/02/20 06:18:37;;;;;;;73.43;20.35;;;6.20;99.90;;;;;;5073549;28;20115;-69
2024/02/20 06:21:04;;;;;;;77.15;20.15;;;6.20;99.90;;;;;;5074020;28;20067;-69
2024/02/20 06:23:30;;;;;;;76.68;20.23;;;6.20;99.90;;;;;;5073911;28;20021;-69
2024/02/20 06:25:56;;;;;;;84.55;21.90;;;6.20;99.90;;;;;;5073723;28;20042;-69
2024/02/20 06:28:21;;;;;;;73.43;21.33;;;6.20;99.90;;;;;;5073716;28;20482;-70
2024/02/20 06:30:47;;;;;;;66.00;20.48;;;6.20;99.90;;;;;;5073733;28;20382;-70
2024/02/20 06:33:14;;;;;;;75.72;21.60;;;6.20;99.90;;;;;;5073768;28;20021;-70
2024/02/20 06:35:41;;;;;;;74.07;21.00;;;6.20;99.90;;;;;;5073723;28;20494;-69
2024/02/20 06:38:09;;;;;;;82.05;21.92;;;6.20;99.90;;;;;;5073663;28;20024;-70
2024/02/20 06:40:34;;;;;;;82.28;23.88;;;6.20;99.90;;;;;;5073654;28;20567;-69
2024/02/20 06:43:00;;;;;;;83.45;24.92;;;6.20;99.90;;;;;;5073477;28;20036;-70
2024/02/20 06:45:27;;;;;;;91.55;27.42;;;6.20;99.90;;;;;;5073339;28;20045;-70
2024/02/20 06:47:53;;;;;;;86.20;24.60;;;6.20;99.90;;;;;;5073517;28;20017;-70
2024/02/20 06:50:19;;;;;;;85.97;24.75;;;6.20;99.90;;;;;;5073086;28;20390;-69
2024/02/20 06:52:45;;;;;;;88.28;24.83;;;6.20;99.90;;;;;;5073050;28;20025;-70
2024/02/20 06:55:10;;;;;;;74.30;22.65;;;6.20;99.90;;;;;;5073340;28;20033;-69
2024/02/20 06:57:39;;;;;;;79.60;22.83;;;6.20;99.90;;;;;;5073558;28;20037;-69
2024/02/20 07:00:07;;;;;;;87.55;24.20;;;6.30;99.90;;;;;;5073320;28;20020;-70
2024/02/20 07:02:32;;;;;;;87.50;24.08;;;6.30;99.90;;;;;;5072381;28;20111;-70
2024/02/20 07:04:58;;;;;;;75.18;24.15;;;6.30;99.90;;;;;;5072866;28;20083;-70
2024/02/20 07:07:24;;;;;;;74.00;25.35;;;6.40;99.90;;;;;;5072282;28;20437;-70
2024/02/20 07:09:49;;;;;;;75.30;24.15;;;6.40;99.90;;;;;;5072991;28;20035;-70
2024/02/20 07:12:15;;;;;;;85.07;23.90;;;6.40;99.90;;;;;;5073058;28;20395;-70
2024/02/20 07:14:40;;;;;;;79.63;24.85;;;6.40;99.90;;;;;;5072298;28;20162;-70
2024/02/20 07:17:06;;;;;;;72.30;23.30;;;6.50;99.90;;;;;;5073036;28;20036;-70
2024/02/20 07:19:32;;;;;;;74.18;22.27;;;6.50;99.90;;;;;;5072637;28;20017;-70
2024/02/20 07:21:58;;;;;;;85.63;22.25;;;6.60;99.90;;;;;;5072912;28;20046;-70
2024/02/20 07:24:24;;;;;;;74.70;22.70;;;6.60;99.90;;;;;;5076358;28;20064;-70
2024/02/20 07:26:50;;;;;;;69.55;21.38;;;6.60;99.90;;;;;;5075418;28;20054;-70
2024/02/20 07:29:18;;;;;;;75.75;21.90;;;6.60;99.90;;;;;;5076980;28;20040;-70
2024/02/20 07:31:45;;;;;;;65.03;22.40;;;6.70;99.90;;;;;;5079265;28;20028;-69
2024/02/20 07:34:11;;;;;;;73.38;22.98;;;6.70;99.90;;;;;;5076786;28;20067;-70
2024/02/20 07:36:37;;;;;;;71.80;22.85;;;6.70;99.90;;;;;;5076857;28;20512;-70
2024/02/20 07:39:03;;;;;;;62.33;22.52;;;6.70;99.90;;;;;;5076365;28;20025;-70
2024/02/20 07:41:28;;;;;;;72.47;23.10;;;6.70;99.90;;;;;;5076445;28;20029;-70
2024/02/20 07:43:54;;;;;;;79.30;23.10;;;6.70;99.90;;;;;;5076687;28;20029;-70
2024/02/20 07:46:20;;;;;;;80.95;22.20;;;6.80;99.90;;;;;;5076655;28;20043;-70
2024/02/20 07:48:46;;;;;;;63.53;21.92;;;6.80;99.90;;;;;;5076781;28;20201;-70
2024/02/20 07:51:13;;;;;;;71.15;22.27;;;6.80;99.90;;;;;;5076822;28;20475;-70
2024/02/20 07:53:38;;;;;;;66.68;21.17;;;6.90;99.90;;;;;;5076766;28;20028;-69
2024/02/20 07:56:08;;;;;;;75.85;23.88;;;6.90;99.90;;;;;;5076107;28;20505;-70
2024/02/20 07:58:37;;;;;;;73.63;22.35;;;6.90;99.90;;;;;;5076431;28;20426;-69
2024/02/20 08:01:07;;;;;;;80.65;22.75;;;7.00;99.90;;;;;;5076375;28;20028;-69
2024/02/20 08:03:32;;;;;;;74.00;23.25;;;7.00;99.90;;;;;;5075611;28;20032;-70
2024/02/20 08:05:58;;;;;;;79.15;23.13;;;7.10;99.90;;;;;;5075463;28;20051;-70
2024/02/20 08:08:24;;;;;;;68.50;21.13;;;7.10;99.90;;;;;;5075946;28;20031;-70
2024/02/20 08:10:49;;;;;;;66.15;20.98;;;7.10;99.90;;;;;;5076258;28;20390;-70
2024/02/20 08:13:15;;;;;;;62.50;19.90;;;7.20;99.90;;;;;;5076036;28;20028;-70
2024/02/20 08:15:41;;;;;;;73.63;20.42;;;7.20;99.90;;;;;;5076419;28;20521;-70
2024/02/20 08:18:07;;;;;;;72.07;20.45;;;7.30;99.90;;;;;;5075597;28;20060;-70
2024/02/20 08:20:32;;;;;;;61.80;20.25;;;7.30;99.90;;;;;;5076103;28;20066;-69
2024/02/20 08:22:58;;;;;;;70.70;20.80;;;7.40;99.90;;;;;;5075565;28;20025;-69
2024/02/20 08:25:23;;;;;;;67.07;19.77;;;7.30;99.90;;;;;;5075581;28;20063;-69
2024/02/20 08:27:49;;;;;;;60.08;19.23;;;7.40;99.90;;;;;;5076057;28;20028;-70
2024/02/20 08:30:15;;;;;;;59.95;19.65;;;7.50;99.90;;;;;;5074707;28;20489;-69
2024/02/20 08:32:44;;;;;;;69.35;19.88;;;7.40;99.90;;;;;;5072697;28;20031;-69
2024/02/20 08:35:09;;;;;;;67.50;19.05;;;7.40;99.90;;;;;;5074622;28;20385;-70
2024/02/20 08:37:35;;;;;;;69.63;22.38;;;7.40;99.90;;;;;;5072242;28;20087;-69
2024/02/20 08:40:02;;;;;;;64.15;19.42;;;7.50;99.90;;;;;;5075373;28;20470;-69
2024/02/20 08:42:28;;;;;;;68.35;19.90;;;7.50;99.90;;;;;;5074981;28;20036;-70
2024/02/20 08:44:54;;;;;;;55.97;19.60;;;7.70;99.90;;;;;;5074407;28;20036;-69
2024/02/20 08:47:19;;;;;;;66.15;20.55;;;7.70;99.90;;;;;;5074726;28;20028;-69
2024/02/20 08:49:49;;;;;;;58.78;18.63;;;7.80;99.90;;;;;;5075285;28;20055;-70
2024/02/20 08:52:15;;;;;;;58.45;18.52;;;8.00;99.90;;;;;;5074781;28;20031;-70
2024/02/20 08:54:41;;;;;;;59.05;18.73;;;8.10;99.90;;;;;;5075057;28;20032;-70
2024/02/20 08:57:06;;;;;;;56.38;18.10;;;8.10;99.90;;;;;;5075082;28;20044;-70
2024/02/20 08:59:32;;;;;;;58.03;19.10;;;8.20;99.90;;;;;;5074958;28;20044;-69
2024/02/20 09:01:58;;;;;;;62.20;18.23;;;8.30;99.90;;;;;;5074603;28;20036;-70
2024/02/20 09:04:26;;;;;;;58.65;18.00;;;8.40;99.90;;;;;;5075080;28;20106;-70
2024/02/20 09:06:52;;;;;;;59.05;18.27;;;8.40;99.90;;;;;;5074727;28;20036;-70
2024/02/20 09:09:18;;;;;;;56.53;18.70;;;8.40;99.90;;;;;;5075064;28;20028;-70
2024/02/20 09:11:44;;;;;;;59.20;19.38;;;8.60;99.90;;;;;;5074965;28;20032;-69
2024/02/20 09:14:10;;;;;;;57.70;18.10;;;8.70;99.90;;;;;;5074954;28;20394;-70
2024/02/20 09:16:35;;;;;;;60.95;18.42;;;8.60;99.90;;;;;;5074930;28;20400;-69
2024/02/20 09:19:02;;;;;;;53.65;17.25;;;8.60;99.90;;;;;;5074578;28;20036;-70
2024/02/20 09:21:27;;;;;;;58.20;18.80;;;8.60;99.90;;;;;;5074569;28;20029;-70
2024/02/20 09:23:53;;;;;;;58.10;17.95;;;8.60;99.90;;;;;;5074823;28;20043;-70
2024/02/20 09:26:21;;;;;;;65.15;18.58;;;8.60;99.90;;;;;;5074305;28;20116;-70
2024/02/20 09:28:46;;;;;;;67.25;21.40;;;8.60;99.90;;;;;;5074378;28;20474;-70
2024/02/20 09:31:12;;;;;;;65.85;22.05;;;8.70;99.90;;;;;;5074582;28;20032;-69
2024/02/20 09:33:37;;;;;;;70.93;24.98;;;8.70;99.90;;;;;;5075939;28;20479;-69
2024/02/20 09:36:03;;;;;;;60.17;19.73;;;8.70;99.90;;;;;;5072616;28;20126;-70
2024/02/20 09:38:29;;;;;;;52.13;18.63;;;8.60;99.90;;;;;;5073137;28;20111;-69
2024/02/20 09:40:55;;;;;;;53.70;17.55;;;8.60;99.90;;;;;;5072993;28;20104;-70
2024/02/20 09:43:20;;;;;;;63.40;19.67;;;8.70;99.90;;;;;;5073249;28;20029;-70
2024/02/20 09:45:49;;;;;;;60.83;20.77;;;8.80;99.90;;;;;;5072315;28;20036;-72
2024/02/20 09:48:15;;;;;;;69.00;24.30;;;8.90;99.90;;;;;;5067692;28;20111;-70
2024/02/20 09:50:43;;;;;;;59.67;21.30;;;8.90;99.90;;;;;;5072936;28;20100;-70
2024/02/20 09:53:09;;;;;;;61.90;21.95;;;8.90;99.90;;;;;;5073162;28;20021;-70
2024/02/20 09:55:35;;;;;;;65.78;23.85;;;9.00;99.90;;;;;;5072492;28;20059;-70
2024/02/20 09:58:01;;;;;;;54.03;21.27;;;9.00;99.90;;;;;;5072704;28;20028;-70
2024/02/20 10:00:27;;;;;;;64.00;23.67;;;9.00;99.90;;;;;;5074152;28;20032;-70
2024/02/20 10:02:53;;;;;;;46.50;18.33;;;8.90;99.90;;;;;;5072785;28;20024;-70
2024/02/20 10:05:19;;;;;;;51.20;19.65;;;8.90;99.90;;;;;;5073268;28;20036;-70
2024/02/20 10:07:45;;;;;;;58.60;20.90;;;9.00;99.90;;;;;;5074172;28;20028;-70
2024/02/20 10:10:16;;;;;;;50.85;18.17;;;9.10;99.90;;;;;;5073838;28;20490;-70
2024/02/20 10:12:44;;;;;;;52.60;18.98;;;9.10;99.90;;;;;;5074149;28;20064;-69
2024/02/20 10:15:10;;;;;;;46.30;18.48;;;9.20;99.90;;;;;;5074158;28;20028;-70
2024/02/20 10:17:36;;;;;;;54.30;18.10;;;9.20;99.90;;;;;;5073496;28;20090;-70
2024/02/20 10:22:47;;;;;;;53.03;21.25;;;9.20;99.90;;;;;;5070455;28;20433;-71
2024/02/20 10:25:13;;;;;;;54.22;20.63;;;9.30;99.90;;;;;;5070356;28;20024;-69
2024/02/20 10:27:40;;;;;;;56.70;20.08;;;9.30;99.90;;;;;;5070632;28;20021;-69
2024/02/20 10:30:08;;;;;;;52.30;20.63;;;9.40;99.90;;;;;;5069031;28;20024;-69
2024/02/20 10:32:36;;;;;;;64.28;22.00;;;9.40;99.90;;;;;;5070258;28;20027;-69
2024/02/20 10:35:05;;;;;;;61.90;21.50;;;9.40;99.90;;;;;;5069778;28;20526;-69
2024/02/20 10:37:31;;;;;;;62.70;22.35;;;9.30;99.90;;;;;;5069900;28;20616;-70
2024/02/20 10:40:13;;;;;;;57.25;21.73;;;9.40;99.90;;;;;;5069635;28;20041;-70
2024/02/20 10:42:40;;;;;;;55.15;21.33;;;9.50;99.90;;;;;;5069793;28;20035;-70
2024/02/20 10:45:09;;;;;;;56.63;20.95;;;9.70;96.70;;;;;;5069496;28;20025;-70
2024/02/20 10:47:52;;;;;;;51.13;23.00;;;9.80;96.10;;;;;;5069534;28;20029;-70
2024/02/20 10:50:18;;;;;;;52.22;19.77;;;9.90;90.20;;;;;;5069818;28;20032;-70
2024/02/20 10:52:45;;;;;;;58.65;20.92;;;9.80;87.10;;;;;;5069567;28;20490;-70
2024/02/20 10:55:11;;;;;;;56.60;20.75;;;9.80;75.70;;;;;;5069825;28;20060;-70
2024/02/20 10:57:39;;;;;;;51.13;19.70;;;9.70;76.70;;;;;;5069376;28;20433;-69
2024/02/20 11:00:09;;;;;;;48.13;18.98;;;9.70;86.00;;;;;;5069239;28;20390;-70
2024/02/20 11:02:40;;;;;;;44.88;18.00;;;9.80;75.30;;;;;;5069338;28;20450;-69
2024/02/20 11:05:06;;;;;;;46.83;18.35;;;9.90;72.70;;;;;;5069112;28;20433;-69
2024/02/20 11:07:33;;;;;;;49.42;18.95;;;9.90;61.30;;;;;;5069057;28;20082;-70
2024/02/20 11:10:19;;;;;;;58.30;19.38;;;10.00;50.50;;;;;;5069186;28;20031;-70
2024/02/20 11:12:46;;;;;;;48.97;16.58;;;10.10;48.00;;;;;;5068931;28;20120;-70
2024/02/20 11:15:20;;;;;;;48.15;17.42;;;10.10;50.50;;;;;;5067998;28;20029;-70
2024/02/20 11:17:50;;;;;;;48.78;17.10;;;10.20;44.20;;;;;;5066244;28;20059;-70
2024/02/20 11:20:19;;;;;;;49.00;16.67;;;10.20;44.10;;;;;;5067145;28;20394;-71
2024/02/20 11:22:45;;;;;;;43.42;14.93;;;10.10;37.90;;;;;;5065059;28;20550;-70
2024/02/20 11:25:31;;;;;;;42.88;15.63;;;10.10;29.60;;;;;;5066069;28;20068;-69
2024/02/20 11:27:57;;;;;;;37.17;14.65;;;10.10;31.80;;;;;;5066083;28;20067;-70
2024/02/20 11:30:24;;;;;;;37.30;13.93;;;10.00;23.80;;;;;;5065730;28;20036;-70
2024/02/20 11:32:52;;;;;;;37.40;14.40;;;10.30;30.30;;;;;;5058338;28;20052;-70
2024/02/20 11:35:30;;;;;;;42.17;14.02;;;10.30;17.90;;;;;;5051783;28;20037;-71
2024/02/20 11:37:57;;;;;;;35.92;14.05;;;10.20;21.50;;;;;;5055252;28;20044;-70
2024/02/20 11:40:24;;;;;;;39.45;14.93;;;10.10;23.90;;;;;;5055778;28;20498;-70
2024/02/20 11:42:52;;;;;;;35.95;13.50;;;10.00;23.90;;;;;;5055467;28;20120;-70
2024/02/20 11:45:22;;;;;;;41.83;13.82;;;10.00;17.50;;;;;;5055440;28;20032;-70
2024/02/20 11:48:09;;;;;;;40.00;13.38;;;10.00;28.00;;;;;;5057278;28;20032;-70
2024/02/20 11:50:40;;;;;;;42.42;13.45;;;10.00;22.70;;;;;;5057412;28;20044;-70
2024/02/20 11:53:07;;;;;;;37.83;12.63;;;10.00;23.90;;;;;;5054091;28;20020;-70
2024/02/20 11:55:34;;;;;;;41.53;13.55;;;10.10;13.50;;;;;;5053977;28;20029;-69
2024/02/20 11:58:02;;;;;;;38.50;13.18;;;10.10;21.40;;;;;;5054038;28;20373;-70
2024/02/20 12:00:31;;;;;;;45.45;12.75;;;10.30;19.30;;;;;;5053746;28;20487;-70
2024/02/20 12:02:59;;;;;;;42.90;12.02;;;10.20;14.40;;;;;;5062241;28;20042;-69
2024/02/20 12:05:27;;;;;;;33.42;11.50;;;10.20;7.20;;;;;;5074168;28;20036;-69
2024/02/20 12:07:55;;;;;;;31.73;12.40;;;10.10;7.00;;;;;;5057887;28;20028;-70
2024/02/20 12:10:23;;;;;;;33.65;12.45;;;10.00;15.80;;;;;;5054633;28;20029;-70
2024/02/20 12:12:49;;;;;;;35.30;12.35;;;10.10;20.70;;;;;;5055031;28;20528;-70
2024/02/20 12:15:15;;;;;;;32.17;10.65;;;10.20;7.00;;;;;;5055426;28;20029;-70
2024/02/20 12:17:42;;;;;;;33.20;10.65;;;10.30;12.80;;;;;;5054625;28;20082;-70
2024/02/20 12:20:10;;;;;;;32.85;11.07;;;10.20;8.00;;;;;;5057036;28;20126;-70
2024/02/20 12:22:40;;;;;;;35.38;11.10;;;10.10;4.40;;;;;;5053363;28;20052;-69
2024/02/20 12:25:10;;;;;;;39.17;12.15;;;10.20;4.30;;;;;;5050198;28;20035;-70
2024/02/20 12:27:37;;;;;;;35.97;10.50;;;10.30;13.90;;;;;;5053354;28;20140;-70
2024/02/20 12:30:04;;;;;;;37.85;11.27;;;10.30;1.00;;;;;;5053440;28;20025;-70
2024/02/20 12:32:30;;;;;;;29.17;11.00;;;10.30;3.70;;;;;;5053552;28;20066;-69
2024/02/20 12:34:56;;;;;;;34.67;10.63;;;10.30;1.00;;;;;;5051996;28;20455;-70
2024/02/20 12:37:23;;;;;;;39.35;11.20;;;10.30;1.00;;;;;;5053050;28;20053;-70